sensor_id;sensor_type;location;lat;lon;timestamp;P1;durP1;ratioP1;P2;durP2;ratioP2
61360;SDS011;47232;47.506;18.936;2022-08-11T00:07:48;0.30;;;0.30;;
61360;SDS011;47232;47.506;18.936;2022-08-11T00:18:25;0.30;;;0.30;;
61360;SDS011;47232;47.506;18.936;2022-08-11T03:43:27;0.30;;;0.30;;
61360;SDS011;47232;47.506;18.936;2022-08-11T04:01:06;0.30;;;0.30;;
61360;SDS011;47232;47.506;18.936;2022-08-11T05:59:45;0.20;;;0.20;;
61360;SDS011;47232;47.506;18.936;2022-08-11T07:28:13;0.40;;;0.40;;
61360;SDS011;47232;47.506;18.936;2022-08-11T07:31:06;0.40;;;0.40;;
61360;SDS011;47232;47.506;18.936;2022-08-11T07:36:16;0.40;;;0.40;;
61360;SDS011;47232;47.506;18.936;2022-08-11T07:38:45;0.50;;;0.50;;
61360;SDS011;47232;47.506;18.936;2022-08-11T07:41:19;0.40;;;0.40;;
61360;SDS011;47232;47.506;18.936;2022-08-11T07:43:47;0.40;;;0.40;;
61360;SDS011;47232;47.506;18.936;2022-08-11T07:46:16;0.40;;;0.40;;
61360;SDS011;47232;47.506;18.936;2022-08-11T07:49:02;0.30;;;0.30;;
61360;SDS011;47232;47.506;18.936;2022-08-11T07:51:48;0.50;;;0.50;;
61360;SDS011;47232;47.506;18.936;2022-08-11T07:54:33;0.40;;;0.40;;
61360;SDS011;47232;47.506;18.936;2022-08-11T07:57:02;0.50;;;0.50;;
61360;SDS011;47232;47.506;18.936;2022-08-11T07:59:50;0.50;;;0.50;;
61360;SDS011;47232;47.506;18.936;2022-08-11T08:02:37;0.30;;;0.30;;
61360;SDS011;47232;47.506;18.936;2022-08-11T08:05:23;0.40;;;0.40;;
61360;SDS011;47232;47.506;18.936;2022-08-11T08:08:08;0.40;;;0.40;;
61360;SDS011;47232;47.506;18.936;2022-08-11T08:10:53;0.40;;;0.40;;
61360;SDS011;47232;47.506;18.936;2022-08-11T08:13:39;0.50;;;0.50;;
61360;SDS011;47232;47.506;18.936;2022-08-11T08:16:25;0.40;;;0.40;;
61360;SDS011;47232;47.506;18.936;2022-08-11T08:19:11;0.40;;;0.40;;
61360;SDS011;47232;47.506;18.936;2022-08-11T08:21:40;0.40;;;0.40;;
61360;SDS011;47232;47.506;18.936;2022-08-11T08:24:06;0.50;;;0.50;;
61360;SDS011;47232;47.506;18.936;2022-08-11T08:26:32;0.40;;;0.40;;
61360;SDS011;47232;47.506;18.936;2022-08-11T08:29:17;0.40;;;0.40;;
61360;SDS011;47232;47.506;18.936;2022-08-11T08:32:03;0.50;;;0.50;;
61360;SDS011;47232;47.506;18.936;2022-08-11T08:34:29;0.40;;;0.40;;
61360;SDS011;47232;47.506;18.936;2022-08-11T08:36:58;0.30;;;0.30;;
61360;SDS011;47232;47.506;18.936;2022-08-11T08:39:25;0.50;;;0.50;;
61360;SDS011;47232;47.506;18.936;2022-08-11T08:41:52;0.40;;;0.40;;
61360;SDS011;47232;47.506;18.936;2022-08-11T08:44:23;0.50;;;0.50;;
61360;SDS011;47232;47.506;18.936;2022-08-11T08:46:53;0.40;;;0.40;;
61360;SDS011;47232;47.506;18.936;2022-08-11T08:49:22;0.30;;;0.30;;
61360;SDS011;47232;47.506;18.936;2022-08-11T08:51:54;0.40;;;0.40;;
61360;SDS011;47232;47.506;18.936;2022-08-11T08:54:34;0.60;;;0.60;;
61360;SDS011;47232;47.506;18.936;2022-08-11T08:57:03;0.50;;;0.50;;
61360;SDS011;47232;47.506;18.936;2022-08-11T08:59:30;0.60;;;0.60;;
61360;SDS011;47232;47.506;18.936;2022-08-11T09:01:59;0.40;;;0.40;;
61360;SDS011;47232;47.506;18.936;2022-08-11T09:04:27;0.60;;;0.60;;
61360;SDS011;47232;47.506;18.936;2022-08-11T09:07:02;0.40;;;0.40;;
61360;SDS011;47232;47.506;18.936;2022-08-11T09:09:33;0.50;;;0.50;;
61360;SDS011;47232;47.506;18.936;2022-08-11T09:11:59;0.50;;;0.50;;
61360;SDS011;47232;47.506;18.936;2022-08-11T09:14:33;0.60;;;0.60;;
61360;SDS011;47232;47.506;18.936;2022-08-11T09:19:46;0.60;;;0.60;;
61360;SDS011;47232;47.506;18.936;2022-08-11T09:22:31;0.50;;;0.50;;
61360;SDS011;47232;47.506;18.936;2022-08-11T09:25:18;0.50;;;0.50;;
61360;SDS011;47232;47.506;18.936;2022-08-11T09:28:04;0.40;;;0.40;;
61360;SDS011;47232;47.506;18.936;2022-08-11T09:30:31;0.50;;;0.50;;
61360;SDS011;47232;47.506;18.936;2022-08-11T09:32:57;0.50;;;0.50;;
61360;SDS011;47232;47.506;18.936;2022-08-11T09:35:26;0.60;;;0.60;;
61360;SDS011;47232;47.506;18.936;2022-08-11T09:37:53;0.50;;;0.50;;
61360;SDS011;47232;47.506;18.936;2022-08-11T09:40:40;0.50;;;0.50;;
61360;SDS011;47232;47.506;18.936;2022-08-11T09:43:09;0.40;;;0.40;;
61360;SDS011;47232;47.506;18.936;2022-08-11T09:45:56;0.50;;;0.50;;
61360;SDS011;47232;47.506;18.936;2022-08-11T09:48:23;0.50;;;0.50;;
61360;SDS011;47232;47.506;18.936;2022-08-11T09:50:53;0.60;;;0.60;;
61360;SDS011;47232;47.506;18.936;2022-08-11T09:53:21;0.50;;;0.50;;
61360;SDS011;47232;47.506;18.936;2022-08-11T09:55:48;0.50;;;0.50;;
61360;SDS011;47232;47.506;18.936;2022-08-11T09:58:15;0.60;;;0.60;;
61360;SDS011;47232;47.506;18.936;2022-08-11T10:00:42;0.40;;;0.40;;
61360;SDS011;47232;47.506;18.936;2022-08-11T10:05:55;0.50;;;0.50;;
61360;SDS011;47232;47.506;18.936;2022-08-11T10:08:44;0.60;;;0.60;;
61360;SDS011;47232;47.506;18.936;2022-08-11T10:13:43;0.60;;;0.60;;
61360;SDS011;47232;47.506;18.936;2022-08-11T10:16:31;0.50;;;0.50;;
61360;SDS011;47232;47.506;18.936;2022-08-11T10:21:38;0.40;;;0.40;;
61360;SDS011;47232;47.506;18.936;2022-08-11T10:26:53;0.60;;;0.60;;
61360;SDS011;47232;47.506;18.936;2022-08-11T10:29:25;0.50;;;0.50;;
61360;SDS011;47232;47.506;18.936;2022-08-11T10:32:10;0.60;;;0.60;;
61360;SDS011;47232;47.506;18.936;2022-08-11T10:34:56;0.40;;;0.40;;
61360;SDS011;47232;47.506;18.936;2022-08-11T10:37:25;0.60;;;0.60;;
61360;SDS011;47232;47.506;18.936;2022-08-11T10:40:01;0.60;;;0.60;;
61360;SDS011;47232;47.506;18.936;2022-08-11T10:42:30;0.70;;;0.70;;
61360;SDS011;47232;47.506;18.936;2022-08-11T10:45:15;0.70;;;0.70;;
61360;SDS011;47232;47.506;18.936;2022-08-11T10:48:03;0.60;;;0.60;;
61360;SDS011;47232;47.506;18.936;2022-08-11T10:50:30;0.70;;;0.70;;
61360;SDS011;47232;47.506;18.936;2022-08-11T10:53:15;0.50;;;0.50;;
61360;SDS011;47232;47.506;18.936;2022-08-11T10:56:00;0.60;;;0.60;;
61360;SDS011;47232;47.506;18.936;2022-08-11T10:58:46;0.80;;;0.80;;
61360;SDS011;47232;47.506;18.936;2022-08-11T11:01:31;0.60;;;0.60;;
61360;SDS011;47232;47.506;18.936;2022-08-11T11:04:11;0.70;;;0.70;;
61360;SDS011;47232;47.506;18.936;2022-08-11T11:09:25;0.50;;;0.50;;
61360;SDS011;47232;47.506;18.936;2022-08-11T11:15:08;0.80;;;0.80;;
61360;SDS011;47232;47.506;18.936;2022-08-11T11:17:56;0.80;;;0.80;;
61360;SDS011;47232;47.506;18.936;2022-08-11T11:20:44;0.70;;;0.70;;
61360;SDS011;47232;47.506;18.936;2022-08-11T11:26:04;0.60;;;0.60;;
61360;SDS011;47232;47.506;18.936;2022-08-11T11:36:42;0.70;;;0.70;;
61360;SDS011;47232;47.506;18.936;2022-08-11T11:39:12;0.80;;;0.80;;
61360;SDS011;47232;47.506;18.936;2022-08-11T11:41:41;0.50;;;0.50;;
61360;SDS011;47232;47.506;18.936;2022-08-11T11:44:07;0.70;;;0.70;;
61360;SDS011;47232;47.506;18.936;2022-08-11T11:46:37;0.90;;;0.90;;
61360;SDS011;47232;47.506;18.936;2022-08-11T11:49:04;0.70;;;0.70;;
61360;SDS011;47232;47.506;18.936;2022-08-11T11:51:33;0.60;;;0.60;;
61360;SDS011;47232;47.506;18.936;2022-08-11T11:54:01;0.70;;;0.70;;
61360;SDS011;47232;47.506;18.936;2022-08-11T11:56:29;0.70;;;0.70;;
61360;SDS011;47232;47.506;18.936;2022-08-11T11:58:55;0.60;;;0.60;;
61360;SDS011;47232;47.506;18.936;2022-08-11T12:01:41;0.70;;;0.70;;
61360;SDS011;47232;47.506;18.936;2022-08-11T12:04:11;0.70;;;0.70;;
61360;SDS011;47232;47.506;18.936;2022-08-11T12:06:48;0.60;;;0.60;;
61360;SDS011;47232;47.506;18.936;2022-08-11T12:09:36;0.70;;;0.70;;
61360;SDS011;47232;47.506;18.936;2022-08-11T12:12:02;0.70;;;0.70;;
61360;SDS011;47232;47.506;18.936;2022-08-11T12:14:47;0.70;;;0.70;;
61360;SDS011;47232;47.506;18.936;2022-08-11T12:17:15;0.50;;;0.50;;
61360;SDS011;47232;47.506;18.936;2022-08-11T12:19:43;0.70;;;0.70;;
61360;SDS011;47232;47.506;18.936;2022-08-11T12:22:09;0.80;;;0.80;;
61360;SDS011;47232;47.506;18.936;2022-08-11T12:24:53;0.60;;;0.60;;
61360;SDS011;47232;47.506;18.936;2022-08-11T12:27:52;0.60;;;0.60;;
61360;SDS011;47232;47.506;18.936;2022-08-11T12:30:19;0.80;;;0.80;;
61360;SDS011;47232;47.506;18.936;2022-08-11T12:32:51;0.90;;;0.90;;
61360;SDS011;47232;47.506;18.936;2022-08-11T12:35:26;0.80;;;0.80;;
61360;SDS011;47232;47.506;18.936;2022-08-11T12:37:53;0.80;;;0.80;;
61360;SDS011;47232;47.506;18.936;2022-08-11T12:40:25;0.70;;;0.70;;
61360;SDS011;47232;47.506;18.936;2022-08-11T12:43:14;0.70;;;0.70;;
61360;SDS011;47232;47.506;18.936;2022-08-11T12:48:34;0.90;;;0.90;;
61360;SDS011;47232;47.506;18.936;2022-08-11T12:51:21;0.80;;;0.80;;
61360;SDS011;47232;47.506;18.936;2022-08-11T12:54:09;0.70;;;0.70;;
61360;SDS011;47232;47.506;18.936;2022-08-11T12:56:42;0.80;;;0.80;;
61360;SDS011;47232;47.506;18.936;2022-08-11T12:59:30;0.70;;;0.70;;
61360;SDS011;47232;47.506;18.936;2022-08-11T13:02:16;0.80;;;0.80;;
61360;SDS011;47232;47.506;18.936;2022-08-11T13:05:03;0.70;;;0.70;;
61360;SDS011;47232;47.506;18.936;2022-08-11T13:07:31;0.50;;;0.50;;
61360;SDS011;47232;47.506;18.936;2022-08-11T13:09:59;0.70;;;0.70;;
61360;SDS011;47232;47.506;18.936;2022-08-11T13:12:27;0.90;;;0.90;;
61360;SDS011;47232;47.506;18.936;2022-08-11T13:15:24;0.60;;;0.60;;
61360;SDS011;47232;47.506;18.936;2022-08-11T13:17:50;0.80;;;0.80;;
61360;SDS011;47232;47.506;18.936;2022-08-11T13:20:20;0.80;;;0.80;;
61360;SDS011;47232;47.506;18.936;2022-08-11T13:22:51;0.80;;;0.80;;
61360;SDS011;47232;47.506;18.936;2022-08-11T13:25:23;0.90;;;0.90;;
61360;SDS011;47232;47.506;18.936;2022-08-11T13:28:04;0.90;;;0.90;;
61360;SDS011;47232;47.506;18.936;2022-08-11T13:30:31;0.70;;;0.70;;
61360;SDS011;47232;47.506;18.936;2022-08-11T13:33:16;0.70;;;0.70;;
61360;SDS011;47232;47.506;18.936;2022-08-11T13:35:47;0.70;;;0.70;;
61360;SDS011;47232;47.506;18.936;2022-08-11T13:38:16;0.80;;;0.80;;
61360;SDS011;47232;47.506;18.936;2022-08-11T13:40:44;0.60;;;0.60;;
61360;SDS011;47232;47.506;18.936;2022-08-11T13:43:12;0.70;;;0.70;;
61360;SDS011;47232;47.506;18.936;2022-08-11T13:45:39;0.70;;;0.70;;
61360;SDS011;47232;47.506;18.936;2022-08-11T13:48:07;0.70;;;0.70;;
61360;SDS011;47232;47.506;18.936;2022-08-11T13:50:35;0.70;;;0.70;;
61360;SDS011;47232;47.506;18.936;2022-08-11T13:53:20;0.80;;;0.80;;
61360;SDS011;47232;47.506;18.936;2022-08-11T13:55:48;0.60;;;0.60;;
61360;SDS011;47232;47.506;18.936;2022-08-11T13:58:22;0.70;;;0.70;;
61360;SDS011;47232;47.506;18.936;2022-08-11T14:00:48;0.90;;;0.90;;
61360;SDS011;47232;47.506;18.936;2022-08-11T14:03:18;0.90;;;0.90;;
61360;SDS011;47232;47.506;18.936;2022-08-11T14:05:48;1.00;;;1.00;;
61360;SDS011;47232;47.506;18.936;2022-08-11T14:08:23;0.70;;;0.70;;
61360;SDS011;47232;47.506;18.936;2022-08-11T14:10:51;0.90;;;0.90;;
61360;SDS011;47232;47.506;18.936;2022-08-11T14:13:41;0.70;;;0.70;;
61360;SDS011;47232;47.506;18.936;2022-08-11T14:16:14;0.80;;;0.80;;
61360;SDS011;47232;47.506;18.936;2022-08-11T14:18:44;0.70;;;0.70;;
61360;SDS011;47232;47.506;18.936;2022-08-11T14:21:13;0.70;;;0.70;;
61360;SDS011;47232;47.506;18.936;2022-08-11T14:24:00;0.80;;;0.80;;
61360;SDS011;47232;47.506;18.936;2022-08-11T14:26:28;0.70;;;0.70;;
61360;SDS011;47232;47.506;18.936;2022-08-11T14:29:22;0.70;;;0.70;;
61360;SDS011;47232;47.506;18.936;2022-08-11T14:31:48;0.60;;;0.60;;
61360;SDS011;47232;47.506;18.936;2022-08-11T14:34:17;0.60;;;0.60;;
61360;SDS011;47232;47.506;18.936;2022-08-11T14:36:49;0.80;;;0.80;;
61360;SDS011;47232;47.506;18.936;2022-08-11T14:39:20;0.60;;;0.60;;
61360;SDS011;47232;47.506;18.936;2022-08-11T14:41:49;0.60;;;0.60;;
61360;SDS011;47232;47.506;18.936;2022-08-11T14:44:37;0.50;;;0.50;;
61360;SDS011;47232;47.506;18.936;2022-08-11T14:47:24;0.60;;;0.60;;
61360;SDS011;47232;47.506;18.936;2022-08-11T14:49:54;0.80;;;0.80;;
61360;SDS011;47232;47.506;18.936;2022-08-11T14:52:23;0.70;;;0.70;;
61360;SDS011;47232;47.506;18.936;2022-08-11T14:54:50;0.70;;;0.70;;
61360;SDS011;47232;47.506;18.936;2022-08-11T14:57:36;0.80;;;0.80;;
61360;SDS011;47232;47.506;18.936;2022-08-11T15:00:04;0.80;;;0.80;;
61360;SDS011;47232;47.506;18.936;2022-08-11T15:02:35;0.80;;;0.80;;
61360;SDS011;47232;47.506;18.936;2022-08-11T15:05:21;0.70;;;0.70;;
61360;SDS011;47232;47.506;18.936;2022-08-11T15:07:48;0.60;;;0.60;;
61360;SDS011;47232;47.506;18.936;2022-08-11T15:10:16;0.60;;;0.60;;
61360;SDS011;47232;47.506;18.936;2022-08-11T15:12:42;0.80;;;0.80;;
61360;SDS011;47232;47.506;18.936;2022-08-11T15:15:09;0.60;;;0.60;;
61360;SDS011;47232;47.506;18.936;2022-08-11T15:17:56;0.60;;;0.60;;
61360;SDS011;47232;47.506;18.936;2022-08-11T15:20:24;0.80;;;0.80;;
61360;SDS011;47232;47.506;18.936;2022-08-11T15:23:09;0.70;;;0.70;;
61360;SDS011;47232;47.506;18.936;2022-08-11T15:25:56;0.60;;;0.60;;
61360;SDS011;47232;47.506;18.936;2022-08-11T15:28:28;0.50;;;0.50;;
61360;SDS011;47232;47.506;18.936;2022-08-11T15:31:19;0.50;;;0.50;;
61360;SDS011;47232;47.506;18.936;2022-08-11T15:34:06;0.60;;;0.60;;
61360;SDS011;47232;47.506;18.936;2022-08-11T15:37:11;0.40;;;0.40;;
61360;SDS011;47232;47.506;18.936;2022-08-11T15:42:50;0.50;;;0.50;;
61360;SDS011;47232;47.506;18.936;2022-08-11T15:45:38;0.70;;;0.70;;
61360;SDS011;47232;47.506;18.936;2022-08-11T15:48:16;0.60;;;0.60;;
61360;SDS011;47232;47.506;18.936;2022-08-11T15:50:56;0.40;;;0.40;;
61360;SDS011;47232;47.506;18.936;2022-08-11T15:53:34;0.60;;;0.60;;
61360;SDS011;47232;47.506;18.936;2022-08-11T15:56:05;0.60;;;0.60;;
61360;SDS011;47232;47.506;18.936;2022-08-11T15:58:33;0.50;;;0.50;;
61360;SDS011;47232;47.506;18.936;2022-08-11T16:01:22;0.40;;;0.40;;
61360;SDS011;47232;47.506;18.936;2022-08-11T16:04:09;0.60;;;0.60;;
61360;SDS011;47232;47.506;18.936;2022-08-11T16:06:41;0.40;;;0.40;;
61360;SDS011;47232;47.506;18.936;2022-08-11T16:11:42;0.50;;;0.50;;
61360;SDS011;47232;47.506;18.936;2022-08-11T16:14:30;0.60;;;0.60;;
61360;SDS011;47232;47.506;18.936;2022-08-11T16:17:23;0.60;;;0.60;;
61360;SDS011;47232;47.506;18.936;2022-08-11T16:19:51;0.40;;;0.40;;
61360;SDS011;47232;47.506;18.936;2022-08-11T16:22:20;0.40;;;0.40;;
61360;SDS011;47232;47.506;18.936;2022-08-11T16:25:16;0.50;;;0.50;;
61360;SDS011;47232;47.506;18.936;2022-08-11T16:27:47;0.60;;;0.60;;
61360;SDS011;47232;47.506;18.936;2022-08-11T16:30:15;0.40;;;0.40;;
61360;SDS011;47232;47.506;18.936;2022-08-11T16:32:42;0.60;;;0.60;;
61360;SDS011;47232;47.506;18.936;2022-08-11T16:35:12;0.50;;;0.50;;
61360;SDS011;47232;47.506;18.936;2022-08-11T16:37:58;0.60;;;0.60;;
61360;SDS011;47232;47.506;18.936;2022-08-11T16:40:45;0.50;;;0.50;;
61360;SDS011;47232;47.506;18.936;2022-08-11T16:43:14;0.50;;;0.50;;
61360;SDS011;47232;47.506;18.936;2022-08-11T16:46:00;0.50;;;0.50;;
61360;SDS011;47232;47.506;18.936;2022-08-11T16:48:47;0.50;;;0.50;;
61360;SDS011;47232;47.506;18.936;2022-08-11T16:51:14;0.50;;;0.50;;
61360;SDS011;47232;47.506;18.936;2022-08-11T16:53:43;0.40;;;0.40;;
61360;SDS011;47232;47.506;18.936;2022-08-11T16:56:10;0.50;;;0.50;;
61360;SDS011;47232;47.506;18.936;2022-08-11T16:58:41;0.40;;;0.40;;
61360;SDS011;47232;47.506;18.936;2022-08-11T17:01:28;0.40;;;0.40;;
61360;SDS011;47232;47.506;18.936;2022-08-11T17:03:59;0.40;;;0.40;;
61360;SDS011;47232;47.506;18.936;2022-08-11T17:06:50;0.40;;;0.40;;
61360;SDS011;47232;47.506;18.936;2022-08-11T17:09:36;0.30;;;0.30;;
61360;SDS011;47232;47.506;18.936;2022-08-11T17:12:24;0.40;;;0.40;;
61360;SDS011;47232;47.506;18.936;2022-08-11T17:15:15;0.40;;;0.40;;
61360;SDS011;47232;47.506;18.936;2022-08-11T17:18:02;0.40;;;0.40;;
61360;SDS011;47232;47.506;18.936;2022-08-11T17:20:30;0.50;;;0.50;;
61360;SDS011;47232;47.506;18.936;2022-08-11T17:22:58;0.50;;;0.50;;
61360;SDS011;47232;47.506;18.936;2022-08-11T17:25:44;0.40;;;0.40;;
61360;SDS011;47232;47.506;18.936;2022-08-11T17:28:12;0.40;;;0.40;;
61360;SDS011;47232;47.506;18.936;2022-08-11T17:30:40;0.50;;;0.50;;
61360;SDS011;47232;47.506;18.936;2022-08-11T17:33:26;0.40;;;0.40;;
61360;SDS011;47232;47.506;18.936;2022-08-11T17:36:12;0.30;;;0.30;;
61360;SDS011;47232;47.506;18.936;2022-08-11T17:38:39;0.40;;;0.40;;
61360;SDS011;47232;47.506;18.936;2022-08-11T17:41:06;0.30;;;0.30;;
61360;SDS011;47232;47.506;18.936;2022-08-11T17:43:52;0.40;;;0.40;;
61360;SDS011;47232;47.506;18.936;2022-08-11T17:46:38;0.50;;;0.50;;
61360;SDS011;47232;47.506;18.936;2022-08-11T17:49:23;0.30;;;0.30;;
61360;SDS011;47232;47.506;18.936;2022-08-11T17:51:55;0.40;;;0.40;;
61360;SDS011;47232;47.506;18.936;2022-08-11T17:54:39;0.30;;;0.30;;
61360;SDS011;47232;47.506;18.936;2022-08-11T17:57:25;0.40;;;0.40;;
61360;SDS011;47232;47.506;18.936;2022-08-11T18:00:11;0.30;;;0.30;;
61360;SDS011;47232;47.506;18.936;2022-08-11T18:02:38;0.40;;;0.40;;
61360;SDS011;47232;47.506;18.936;2022-08-11T18:05:29;0.30;;;0.30;;
61360;SDS011;47232;47.506;18.936;2022-08-11T18:07:58;0.40;;;0.40;;
61360;SDS011;47232;47.506;18.936;2022-08-11T18:10:48;0.40;;;0.40;;
61360;SDS011;47232;47.506;18.936;2022-08-11T18:13:36;0.30;;;0.30;;
61360;SDS011;47232;47.506;18.936;2022-08-11T18:16:20;0.20;;;0.20;;
61360;SDS011;47232;47.506;18.936;2022-08-11T18:19:06;0.40;;;0.40;;
61360;SDS011;47232;47.506;18.936;2022-08-11T18:21:52;0.20;;;0.20;;
61360;SDS011;47232;47.506;18.936;2022-08-11T18:24:40;0.40;;;0.40;;
61360;SDS011;47232;47.506;18.936;2022-08-11T18:27:29;0.20;;;0.20;;
61360;SDS011;47232;47.506;18.936;2022-08-11T18:30:15;0.30;;;0.30;;
61360;SDS011;47232;47.506;18.936;2022-08-11T18:33:00;0.30;;;0.30;;
61360;SDS011;47232;47.506;18.936;2022-08-11T18:35:49;0.30;;;0.30;;
61360;SDS011;47232;47.506;18.936;2022-08-11T18:38:38;0.20;;;0.20;;
61360;SDS011;47232;47.506;18.936;2022-08-11T18:41:24;0.30;;;0.30;;
61360;SDS011;47232;47.506;18.936;2022-08-11T18:44:12;0.30;;;0.30;;
61360;SDS011;47232;47.506;18.936;2022-08-11T18:47:01;0.30;;;0.30;;
61360;SDS011;47232;47.506;18.936;2022-08-11T18:49:51;0.20;;;0.20;;
61360;SDS011;47232;47.506;18.936;2022-08-11T18:52:37;0.20;;;0.20;;
61360;SDS011;47232;47.506;18.936;2022-08-11T18:55:26;0.30;;;0.30;;
61360;SDS011;47232;47.506;18.936;2022-08-11T18:58:14;0.30;;;0.30;;
61360;SDS011;47232;47.506;18.936;2022-08-11T19:01:04;0.30;;;0.30;;
61360;SDS011;47232;47.506;18.936;2022-08-11T19:03:51;0.30;;;0.30;;
61360;SDS011;47232;47.506;18.936;2022-08-11T19:06:38;0.20;;;0.20;;
61360;SDS011;47232;47.506;18.936;2022-08-11T19:09:24;0.30;;;0.30;;
61360;SDS011;47232;47.506;18.936;2022-08-11T19:12:09;0.30;;;0.30;;
61360;SDS011;47232;47.506;18.936;2022-08-11T19:14:55;0.30;;;0.30;;
61360;SDS011;47232;47.506;18.936;2022-08-11T19:17:41;0.40;;;0.40;;
61360;SDS011;47232;47.506;18.936;2022-08-11T19:20:29;0.20;;;0.20;;
61360;SDS011;47232;47.506;18.936;2022-08-11T19:23:16;0.30;;;0.30;;
61360;SDS011;47232;47.506;18.936;2022-08-11T19:26:07;0.30;;;0.30;;
61360;SDS011;47232;47.506;18.936;2022-08-11T19:28:52;0.20;;;0.20;;
61360;SDS011;47232;47.506;18.936;2022-08-11T19:31:38;0.40;;;0.40;;
61360;SDS011;47232;47.506;18.936;2022-08-11T19:34:25;0.20;;;0.20;;
61360;SDS011;47232;47.506;18.936;2022-08-11T19:37:11;0.20;;;0.20;;
61360;SDS011;47232;47.506;18.936;2022-08-11T19:40:00;0.30;;;0.30;;
61360;SDS011;47232;47.506;18.936;2022-08-11T19:42:47;0.20;;;0.20;;
61360;SDS011;47232;47.506;18.936;2022-08-11T19:45:33;0.40;;;0.40;;
61360;SDS011;47232;47.506;18.936;2022-08-11T19:48:18;0.20;;;0.20;;
61360;SDS011;47232;47.506;18.936;2022-08-11T19:51:04;0.30;;;0.30;;
61360;SDS011;47232;47.506;18.936;2022-08-11T19:53:50;0.20;;;0.20;;
61360;SDS011;47232;47.506;18.936;2022-08-11T19:56:35;0.20;;;0.20;;
61360;SDS011;47232;47.506;18.936;2022-08-11T19:59:20;0.20;;;0.20;;
61360;SDS011;47232;47.506;18.936;2022-08-11T20:02:04;0.30;;;0.30;;
61360;SDS011;47232;47.506;18.936;2022-08-11T20:04:49;0.30;;;0.30;;
61360;SDS011;47232;47.506;18.936;2022-08-11T20:07:33;0.20;;;0.20;;
61360;SDS011;47232;47.506;18.936;2022-08-11T20:10:19;0.20;;;0.20;;
61360;SDS011;47232;47.506;18.936;2022-08-11T20:13:05;0.20;;;0.20;;
61360;SDS011;47232;47.506;18.936;2022-08-11T20:15:51;0.30;;;0.30;;
61360;SDS011;47232;47.506;18.936;2022-08-11T20:18:37;0.20;;;0.20;;
61360;SDS011;47232;47.506;18.936;2022-08-11T20:21:22;0.30;;;0.30;;
61360;SDS011;47232;47.506;18.936;2022-08-11T20:24:07;0.20;;;0.20;;
61360;SDS011;47232;47.506;18.936;2022-08-11T20:26:52;0.20;;;0.20;;
61360;SDS011;47232;47.506;18.936;2022-08-11T20:29:36;0.30;;;0.30;;
61360;SDS011;47232;47.506;18.936;2022-08-11T20:32:20;0.20;;;0.20;;
61360;SDS011;47232;47.506;18.936;2022-08-11T20:35:05;0.20;;;0.20;;
61360;SDS011;47232;47.506;18.936;2022-08-11T20:37:50;0.20;;;0.20;;
61360;SDS011;47232;47.506;18.936;2022-08-11T20:40:36;0.20;;;0.20;;
61360;SDS011;47232;47.506;18.936;2022-08-11T20:43:22;0.20;;;0.20;;
61360;SDS011;47232;47.506;18.936;2022-08-11T20:46:07;0.30;;;0.30;;
61360;SDS011;47232;47.506;18.936;2022-08-11T20:48:53;0.20;;;0.20;;
61360;SDS011;47232;47.506;18.936;2022-08-11T20:51:39;0.20;;;0.20;;
61360;SDS011;47232;47.506;18.936;2022-08-11T20:54:25;0.30;;;0.30;;
61360;SDS011;47232;47.506;18.936;2022-08-11T20:57:14;0.40;;;0.40;;
61360;SDS011;47232;47.506;18.936;2022-08-11T20:59:59;0.20;;;0.20;;
61360;SDS011;47232;47.506;18.936;2022-08-11T21:02:45;0.20;;;0.20;;
61360;SDS011;47232;47.506;18.936;2022-08-11T21:05:30;0.20;;;0.20;;
61360;SDS011;47232;47.506;18.936;2022-08-11T21:08:28;0.20;;;0.20;;
61360;SDS011;47232;47.506;18.936;2022-08-11T21:11:16;0.20;;;0.20;;
61360;SDS011;47232;47.506;18.936;2022-08-11T21:14:03;0.20;;;0.20;;
61360;SDS011;47232;47.506;18.936;2022-08-11T21:16:49;0.20;;;0.20;;
61360;SDS011;47232;47.506;18.936;2022-08-11T21:19:36;0.30;;;0.30;;
61360;SDS011;47232;47.506;18.936;2022-08-11T21:22:35;0.20;;;0.20;;
61360;SDS011;47232;47.506;18.936;2022-08-11T21:25:58;0.20;;;0.20;;
61360;SDS011;47232;47.506;18.936;2022-08-11T21:28:45;0.20;;;0.20;;
61360;SDS011;47232;47.506;18.936;2022-08-11T21:31:31;0.20;;;0.20;;
61360;SDS011;47232;47.506;18.936;2022-08-11T21:34:18;0.20;;;0.20;;
61360;SDS011;47232;47.506;18.936;2022-08-11T21:37:04;0.20;;;0.20;;
61360;SDS011;47232;47.506;18.936;2022-08-11T21:39:50;0.20;;;0.20;;
61360;SDS011;47232;47.506;18.936;2022-08-11T21:42:36;0.40;;;0.40;;
61360;SDS011;47232;47.506;18.936;2022-08-11T21:45:23;0.20;;;0.20;;
61360;SDS011;47232;47.506;18.936;2022-08-11T21:48:10;0.30;;;0.30;;
61360;SDS011;47232;47.506;18.936;2022-08-11T21:50:55;0.30;;;0.30;;
61360;SDS011;47232;47.506;18.936;2022-08-11T21:53:39;0.30;;;0.30;;
61360;SDS011;47232;47.506;18.936;2022-08-11T21:56:24;0.20;;;0.20;;
61360;SDS011;47232;47.506;18.936;2022-08-11T21:59:09;0.30;;;0.30;;
61360;SDS011;47232;47.506;18.936;2022-08-11T22:01:54;0.30;;;0.30;;
61360;SDS011;47232;47.506;18.936;2022-08-11T22:04:39;0.30;;;0.30;;
61360;SDS011;47232;47.506;18.936;2022-08-11T22:07:25;0.20;;;0.20;;
61360;SDS011;47232;47.506;18.936;2022-08-11T22:10:09;0.30;;;0.30;;
61360;SDS011;47232;47.506;18.936;2022-08-11T22:12:54;0.30;;;0.30;;
61360;SDS011;47232;47.506;18.936;2022-08-11T22:15:38;0.20;;;0.20;;
61360;SDS011;47232;47.506;18.936;2022-08-11T22:18:23;0.20;;;0.20;;
61360;SDS011;47232;47.506;18.936;2022-08-11T22:21:09;0.30;;;0.30;;
61360;SDS011;47232;47.506;18.936;2022-08-11T22:23:57;0.30;;;0.30;;
61360;SDS011;47232;47.506;18.936;2022-08-11T22:26:43;0.30;;;0.30;;
61360;SDS011;47232;47.506;18.936;2022-08-11T22:29:27;0.10;;;0.10;;
61360;SDS011;47232;47.506;18.936;2022-08-11T22:32:12;0.30;;;0.30;;
61360;SDS011;47232;47.506;18.936;2022-08-11T22:34:58;0.20;;;0.20;;
61360;SDS011;47232;47.506;18.936;2022-08-11T22:37:44;0.20;;;0.20;;
61360;SDS011;47232;47.506;18.936;2022-08-11T22:40:30;0.20;;;0.20;;
61360;SDS011;47232;47.506;18.936;2022-08-11T22:43:15;0.20;;;0.20;;
61360;SDS011;47232;47.506;18.936;2022-08-11T22:46:00;0.20;;;0.20;;
61360;SDS011;47232;47.506;18.936;2022-08-11T22:48:44;0.10;;;0.10;;
61360;SDS011;47232;47.506;18.936;2022-08-11T22:51:30;0.20;;;0.20;;
61360;SDS011;47232;47.506;18.936;2022-08-11T22:54:16;0.20;;;0.20;;
61360;SDS011;47232;47.506;18.936;2022-08-11T22:57:02;0.30;;;0.30;;
61360;SDS011;47232;47.506;18.936;2022-08-11T22:59:47;0.20;;;0.20;;
61360;SDS011;47232;47.506;18.936;2022-08-11T23:02:31;0.30;;;0.30;;
61360;SDS011;47232;47.506;18.936;2022-08-11T23:05:17;0.20;;;0.20;;
61360;SDS011;47232;47.506;18.936;2022-08-11T23:08:01;0.30;;;0.30;;
61360;SDS011;47232;47.506;18.936;2022-08-11T23:10:46;0.20;;;0.20;;
61360;SDS011;47232;47.506;18.936;2022-08-11T23:13:32;0.30;;;0.30;;
61360;SDS011;47232;47.506;18.936;2022-08-11T23:16:17;0.20;;;0.20;;
61360;SDS011;47232;47.506;18.936;2022-08-11T23:19:02;0.20;;;0.20;;
61360;SDS011;47232;47.506;18.936;2022-08-11T23:21:48;0.20;;;0.20;;
61360;SDS011;47232;47.506;18.936;2022-08-11T23:24:35;0.30;;;0.30;;
61360;SDS011;47232;47.506;18.936;2022-08-11T23:27:19;0.20;;;0.20;;
61360;SDS011;47232;47.506;18.936;2022-08-11T23:30:06;0.40;;;0.40;;
61360;SDS011;47232;47.506;18.936;2022-08-11T23:32:53;0.20;;;0.20;;
61360;SDS011;47232;47.506;18.936;2022-08-11T23:35:41;0.20;;;0.20;;
61360;SDS011;47232;47.506;18.936;2022-08-11T23:38:28;0.20;;;0.20;;
61360;SDS011;47232;47.506;18.936;2022-08-11T23:41:15;0.20;;;0.20;;